Terminal Aerodrome Forecast
Issued by NWS

Home | Current Version | Previous Version | Graphics & Text | Print | Product List | Glossary On
Versions: 1 2 3 4 5 6 7 8 9 10 11 12 13 14 15
000
FTUS43 KBIS 140200 AAA
TAFMOT
TAF AMD
KMOT 140242Z 1403/1424 29009KT P6SM SCT030 BKN070
      TEMPO 1404/1408 BKN025
     FM141900 29007KT P6SM SCT080=

USA.gov is the U.S. government's official web portal to all federal, state and local government web resources and services.